sensor_id;sensor_type;location;lat;lon;timestamp;P1;durP1;ratioP1;P2;durP2;ratioP2
32321;SDS011;61553;48.994;8.940;2022-10-20T00:01:17;30.27;;;14.40;;
32321;SDS011;61553;48.994;8.940;2022-10-20T00:03:44;25.75;;;15.55;;
32321;SDS011;61553;48.994;8.940;2022-10-20T00:08:38;26.55;;;15.48;;
32321;SDS011;61553;48.994;8.940;2022-10-20T00:11:05;31.83;;;15.70;;
32321;SDS011;61553;48.994;8.940;2022-10-20T00:13:32;25.58;;;14.35;;
32321;SDS011;61553;48.994;8.940;2022-10-20T00:15:58;30.75;;;16.23;;
32321;SDS011;61553;48.994;8.940;2022-10-20T00:18:24;29.85;;;15.93;;
32321;SDS011;61553;48.994;8.940;2022-10-20T00:20:51;29.13;;;16.00;;
32321;SDS011;61553;48.994;8.940;2022-10-20T00:23:17;32.53;;;16.42;;
32321;SDS011;61553;48.994;8.940;2022-10-20T00:25:43;33.40;;;15.82;;
32321;SDS011;61553;48.994;8.940;2022-10-20T00:28:09;28.05;;;16.40;;
32321;SDS011;61553;48.994;8.940;2022-10-20T00:30:35;31.00;;;17.00;;
32321;SDS011;61553;48.994;8.940;2022-10-20T00:33:01;29.77;;;16.70;;
32321;SDS011;61553;48.994;8.940;2022-10-20T00:35:28;27.65;;;15.95;;
32321;SDS011;61553;48.994;8.940;2022-10-20T00:37:54;35.63;;;17.30;;
32321;SDS011;61553;48.994;8.940;2022-10-20T00:40:20;28.90;;;16.05;;
32321;SDS011;61553;48.994;8.940;2022-10-20T00:42:46;29.55;;;17.10;;
32321;SDS011;61553;48.994;8.940;2022-10-20T00:45:14;26.45;;;16.00;;
32321;SDS011;61553;48.994;8.940;2022-10-20T00:47:51;29.98;;;15.57;;
32321;SDS011;61553;48.994;8.940;2022-10-20T00:50:30;31.38;;;15.25;;
32321;SDS011;61553;48.994;8.940;2022-10-20T00:53:02;27.63;;;16.35;;
32321;SDS011;61553;48.994;8.940;2022-10-20T00:55:30;28.27;;;15.65;;
32321;SDS011;61553;48.994;8.940;2022-10-20T00:57:57;26.48;;;15.90;;
32321;SDS011;61553;48.994;8.940;2022-10-20T01:00:25;30.58;;;17.23;;
32321;SDS011;61553;48.994;8.940;2022-10-20T01:02:51;29.00;;;15.88;;
32321;SDS011;61553;48.994;8.940;2022-10-20T01:05:20;27.60;;;16.23;;
32321;SDS011;61553;48.994;8.940;2022-10-20T01:07:46;28.40;;;15.70;;
32321;SDS011;61553;48.994;8.940;2022-10-20T01:10:12;29.45;;;16.02;;
32321;SDS011;61553;48.994;8.940;2022-10-20T01:18:12;30.08;;;16.77;;
32321;SDS011;61553;48.994;8.940;2022-10-20T01:20:54;35.85;;;17.90;;
32321;SDS011;61553;48.994;8.940;2022-10-20T01:38:32;38.83;;;17.63;;
32321;SDS011;61553;48.994;8.940;2022-10-20T01:40:54;40.05;;;17.50;;
32321;SDS011;61553;48.994;8.940;2022-10-20T01:43:21;31.92;;;17.27;;
32321;SDS011;61553;48.994;8.940;2022-10-20T01:45:50;35.60;;;16.92;;
32321;SDS011;61553;48.994;8.940;2022-10-20T01:48:19;42.58;;;18.52;;
32321;SDS011;61553;48.994;8.940;2022-10-20T01:50:47;44.83;;;18.00;;
32321;SDS011;61553;48.994;8.940;2022-10-20T01:53:14;29.90;;;15.88;;
32321;SDS011;61553;48.994;8.940;2022-10-20T01:55:40;31.88;;;17.02;;
32321;SDS011;61553;48.994;8.940;2022-10-20T02:00:50;34.00;;;18.27;;
32321;SDS011;61553;48.994;8.940;2022-10-20T02:08:41;32.08;;;18.00;;
32321;SDS011;61553;48.994;8.940;2022-10-20T02:11:21;34.83;;;17.77;;
32321;SDS011;61553;48.994;8.940;2022-10-20T02:13:47;29.85;;;17.00;;
32321;SDS011;61553;48.994;8.940;2022-10-20T02:16:17;40.42;;;18.05;;
32321;SDS011;61553;48.994;8.940;2022-10-20T02:18:51;31.48;;;16.35;;
32321;SDS011;61553;48.994;8.940;2022-10-20T02:21:17;33.10;;;17.30;;
32321;SDS011;61553;48.994;8.940;2022-10-20T02:23:44;35.05;;;18.83;;
32321;SDS011;61553;48.994;8.940;2022-10-20T02:26:13;31.38;;;16.17;;
32321;SDS011;61553;48.994;8.940;2022-10-20T02:28:42;33.22;;;17.35;;
32321;SDS011;61553;48.994;8.940;2022-10-20T02:31:12;32.95;;;17.05;;
32321;SDS011;61553;48.994;8.940;2022-10-20T02:33:39;29.85;;;16.10;;
32321;SDS011;61553;48.994;8.940;2022-10-20T02:36:06;33.67;;;17.25;;
32321;SDS011;61553;48.994;8.940;2022-10-20T02:38:39;36.15;;;16.92;;
32321;SDS011;61553;48.994;8.940;2022-10-20T02:41:05;35.70;;;18.38;;
32321;SDS011;61553;48.994;8.940;2022-10-20T02:43:30;30.00;;;17.48;;
32321;SDS011;61553;48.994;8.940;2022-10-20T02:45:56;31.58;;;17.30;;
32321;SDS011;61553;48.994;8.940;2022-10-20T02:48:21;34.95;;;18.20;;
32321;SDS011;61553;48.994;8.940;2022-10-20T02:50:47;34.45;;;17.60;;
32321;SDS011;61553;48.994;8.940;2022-10-20T02:53:13;36.20;;;18.38;;
32321;SDS011;61553;48.994;8.940;2022-10-20T02:55:38;34.25;;;17.40;;
32321;SDS011;61553;48.994;8.940;2022-10-20T02:58:06;36.40;;;17.13;;
32321;SDS011;61553;48.994;8.940;2022-10-20T03:00:31;30.77;;;16.45;;
32321;SDS011;61553;48.994;8.940;2022-10-20T03:02:57;31.58;;;16.50;;
32321;SDS011;61553;48.994;8.940;2022-10-20T03:05:23;29.10;;;15.95;;
32321;SDS011;61553;48.994;8.940;2022-10-20T03:07:48;28.33;;;15.57;;
32321;SDS011;61553;48.994;8.940;2022-10-20T03:10:14;28.27;;;15.57;;
32321;SDS011;61553;48.994;8.940;2022-10-20T03:12:40;31.88;;;16.30;;
32321;SDS011;61553;48.994;8.940;2022-10-20T03:15:06;30.23;;;16.25;;
32321;SDS011;61553;48.994;8.940;2022-10-20T03:17:31;27.27;;;14.82;;
32321;SDS011;61553;48.994;8.940;2022-10-20T03:19:57;26.65;;;16.38;;
32321;SDS011;61553;48.994;8.940;2022-10-20T03:22:22;31.23;;;16.17;;
32321;SDS011;61553;48.994;8.940;2022-10-20T03:24:48;34.95;;;17.88;;
32321;SDS011;61553;48.994;8.940;2022-10-20T03:27:14;31.63;;;16.15;;
32321;SDS011;61553;48.994;8.940;2022-10-20T03:29:39;32.90;;;16.92;;
32321;SDS011;61553;48.994;8.940;2022-10-20T03:32:05;30.33;;;17.60;;
32321;SDS011;61553;48.994;8.940;2022-10-20T03:34:31;30.38;;;16.90;;
32321;SDS011;61553;48.994;8.940;2022-10-20T03:36:56;33.53;;;17.27;;
32321;SDS011;61553;48.994;8.940;2022-10-20T03:39:22;33.35;;;17.42;;
32321;SDS011;61553;48.994;8.940;2022-10-20T03:41:47;27.25;;;16.77;;
32321;SDS011;61553;48.994;8.940;2022-10-20T03:44:13;31.50;;;16.13;;
32321;SDS011;61553;48.994;8.940;2022-10-20T03:46:38;32.65;;;17.75;;
32321;SDS011;61553;48.994;8.940;2022-10-20T03:49:04;32.60;;;18.30;;
32321;SDS011;61553;48.994;8.940;2022-10-20T03:51:30;27.70;;;16.73;;
32321;SDS011;61553;48.994;8.940;2022-10-20T03:53:55;31.52;;;17.63;;
32321;SDS011;61553;48.994;8.940;2022-10-20T03:56:21;30.45;;;17.15;;
32321;SDS011;61553;48.994;8.940;2022-10-20T03:58:47;36.35;;;17.42;;
32321;SDS011;61553;48.994;8.940;2022-10-20T04:01:13;32.55;;;18.48;;
32321;SDS011;61553;48.994;8.940;2022-10-20T04:03:40;36.42;;;17.95;;
32321;SDS011;61553;48.994;8.940;2022-10-20T04:06:06;34.85;;;18.00;;
32321;SDS011;61553;48.994;8.940;2022-10-20T04:08:32;32.78;;;18.25;;
32321;SDS011;61553;48.994;8.940;2022-10-20T04:10:57;36.55;;;18.25;;
32321;SDS011;61553;48.994;8.940;2022-10-20T04:13:23;34.67;;;17.88;;
32321;SDS011;61553;48.994;8.940;2022-10-20T04:15:49;31.33;;;18.60;;
32321;SDS011;61553;48.994;8.940;2022-10-20T04:18:14;32.92;;;17.92;;
32321;SDS011;61553;48.994;8.940;2022-10-20T04:20:40;31.67;;;17.38;;
32321;SDS011;61553;48.994;8.940;2022-10-20T04:23:06;32.83;;;18.10;;
32321;SDS011;61553;48.994;8.940;2022-10-20T04:25:31;30.65;;;17.02;;
32321;SDS011;61553;48.994;8.940;2022-10-20T04:27:57;28.23;;;17.42;;
32321;SDS011;61553;48.994;8.940;2022-10-20T04:30:23;29.83;;;17.17;;
32321;SDS011;61553;48.994;8.940;2022-10-20T04:32:49;29.95;;;15.98;;
32321;SDS011;61553;48.994;8.940;2022-10-20T04:35:15;26.52;;;16.08;;
32321;SDS011;61553;48.994;8.940;2022-10-20T04:37:41;27.38;;;16.63;;
32321;SDS011;61553;48.994;8.940;2022-10-20T04:40:07;30.67;;;16.83;;
32321;SDS011;61553;48.994;8.940;2022-10-20T04:42:33;28.48;;;16.60;;
32321;SDS011;61553;48.994;8.940;2022-10-20T04:44:59;31.58;;;17.60;;
32321;SDS011;61553;48.994;8.940;2022-10-20T04:47:24;26.00;;;16.75;;
32321;SDS011;61553;48.994;8.940;2022-10-20T04:49:50;27.95;;;16.27;;
32321;SDS011;61553;48.994;8.940;2022-10-20T04:52:16;28.13;;;17.70;;
32321;SDS011;61553;48.994;8.940;2022-10-20T04:54:41;32.85;;;17.35;;
32321;SDS011;61553;48.994;8.940;2022-10-20T04:57:07;34.65;;;18.17;;
32321;SDS011;61553;48.994;8.940;2022-10-20T04:59:34;33.80;;;18.30;;
32321;SDS011;61553;48.994;8.940;2022-10-20T05:02:00;34.58;;;18.70;;
32321;SDS011;61553;48.994;8.940;2022-10-20T05:04:25;36.55;;;19.20;;
32321;SDS011;61553;48.994;8.940;2022-10-20T05:06:51;37.00;;;17.95;;
32321;SDS011;61553;48.994;8.940;2022-10-20T05:09:17;37.80;;;17.88;;
32321;SDS011;61553;48.994;8.940;2022-10-20T05:11:42;29.75;;;17.17;;
32321;SDS011;61553;48.994;8.940;2022-10-20T05:14:08;28.92;;;17.13;;
32321;SDS011;61553;48.994;8.940;2022-10-20T05:16:34;32.30;;;17.58;;
32321;SDS011;61553;48.994;8.940;2022-10-20T05:18:59;31.00;;;17.15;;
32321;SDS011;61553;48.994;8.940;2022-10-20T05:21:27;36.95;;;17.50;;
32321;SDS011;61553;48.994;8.940;2022-10-20T05:23:54;31.13;;;17.60;;
32321;SDS011;61553;48.994;8.940;2022-10-20T05:26:21;33.17;;;17.80;;
32321;SDS011;61553;48.994;8.940;2022-10-20T05:28:48;32.65;;;17.95;;
32321;SDS011;61553;48.994;8.940;2022-10-20T05:31:15;31.33;;;18.13;;
32321;SDS011;61553;48.994;8.940;2022-10-20T05:33:43;31.92;;;17.52;;
32321;SDS011;61553;48.994;8.940;2022-10-20T05:36:11;34.88;;;18.67;;
32321;SDS011;61553;48.994;8.940;2022-10-20T05:38:39;34.72;;;18.15;;
32321;SDS011;61553;48.994;8.940;2022-10-20T05:41:08;37.25;;;21.02;;
32321;SDS011;61553;48.994;8.940;2022-10-20T05:43:36;32.88;;;19.20;;
32321;SDS011;61553;48.994;8.940;2022-10-20T05:46:03;32.40;;;19.08;;
32321;SDS011;61553;48.994;8.940;2022-10-20T05:48:29;35.97;;;19.20;;
32321;SDS011;61553;48.994;8.940;2022-10-20T05:51:05;39.15;;;19.65;;
32321;SDS011;61553;48.994;8.940;2022-10-20T05:53:32;35.30;;;20.13;;
32321;SDS011;61553;48.994;8.940;2022-10-20T05:56:01;38.22;;;21.27;;
32321;SDS011;61553;48.994;8.940;2022-10-20T05:58:28;47.33;;;21.38;;
32321;SDS011;61553;48.994;8.940;2022-10-20T06:01:02;45.10;;;22.83;;
32321;SDS011;61553;48.994;8.940;2022-10-20T06:03:29;44.38;;;23.52;;
32321;SDS011;61553;48.994;8.940;2022-10-20T06:05:58;44.20;;;21.63;;
32321;SDS011;61553;48.994;8.940;2022-10-20T06:08:24;50.88;;;22.95;;
32321;SDS011;61553;48.994;8.940;2022-10-20T06:10:52;45.70;;;23.08;;
32321;SDS011;61553;48.994;8.940;2022-10-20T06:13:18;43.40;;;21.58;;
32321;SDS011;61553;48.994;8.940;2022-10-20T06:15:43;49.15;;;23.00;;
32321;SDS011;61553;48.994;8.940;2022-10-20T06:18:11;42.65;;;22.55;;
32321;SDS011;61553;48.994;8.940;2022-10-20T06:20:37;40.35;;;22.08;;
32321;SDS011;61553;48.994;8.940;2022-10-20T06:23:03;43.83;;;22.42;;
32321;SDS011;61553;48.994;8.940;2022-10-20T06:25:28;44.20;;;21.75;;
32321;SDS011;61553;48.994;8.940;2022-10-20T06:27:54;40.42;;;21.55;;
32321;SDS011;61553;48.994;8.940;2022-10-20T06:30:20;43.22;;;21.77;;
32321;SDS011;61553;48.994;8.940;2022-10-20T06:32:45;46.15;;;22.55;;
32321;SDS011;61553;48.994;8.940;2022-10-20T06:35:11;40.97;;;21.70;;
32321;SDS011;61553;48.994;8.940;2022-10-20T06:37:36;44.53;;;21.50;;
32321;SDS011;61553;48.994;8.940;2022-10-20T06:40:02;41.05;;;22.38;;
32321;SDS011;61553;48.994;8.940;2022-10-20T06:42:28;39.10;;;21.08;;
32321;SDS011;61553;48.994;8.940;2022-10-20T06:44:54;38.10;;;21.60;;
32321;SDS011;61553;48.994;8.940;2022-10-20T06:47:20;40.90;;;20.80;;
32321;SDS011;61553;48.994;8.940;2022-10-20T06:49:47;32.20;;;19.77;;
32321;SDS011;61553;48.994;8.940;2022-10-20T06:52:12;37.67;;;19.73;;
32321;SDS011;61553;48.994;8.940;2022-10-20T06:54:38;30.15;;;18.20;;
32321;SDS011;61553;48.994;8.940;2022-10-20T06:57:04;31.02;;;17.55;;
32321;SDS011;61553;48.994;8.940;2022-10-20T06:59:29;31.60;;;18.33;;
32321;SDS011;61553;48.994;8.940;2022-10-20T07:01:55;28.27;;;17.13;;
32321;SDS011;61553;48.994;8.940;2022-10-20T07:04:21;31.02;;;18.27;;
32321;SDS011;61553;48.994;8.940;2022-10-20T07:06:46;27.92;;;17.10;;
32321;SDS011;61553;48.994;8.940;2022-10-20T07:09:13;26.88;;;16.17;;
32321;SDS011;61553;48.994;8.940;2022-10-20T07:11:41;26.27;;;16.35;;
32321;SDS011;61553;48.994;8.940;2022-10-20T07:14:07;26.17;;;15.65;;
32321;SDS011;61553;48.994;8.940;2022-10-20T07:16:33;24.90;;;14.10;;
32321;SDS011;61553;48.994;8.940;2022-10-20T07:19:00;21.25;;;13.32;;
32321;SDS011;61553;48.994;8.940;2022-10-20T07:21:27;25.38;;;14.55;;
32321;SDS011;61553;48.994;8.940;2022-10-20T07:23:54;23.33;;;14.48;;
32321;SDS011;61553;48.994;8.940;2022-10-20T07:26:30;21.60;;;13.45;;
32321;SDS011;61553;48.994;8.940;2022-10-20T07:28:58;20.35;;;12.93;;
32321;SDS011;61553;48.994;8.940;2022-10-20T07:31:26;19.55;;;13.20;;
32321;SDS011;61553;48.994;8.940;2022-10-20T07:33:54;17.73;;;11.82;;
32321;SDS011;61553;48.994;8.940;2022-10-20T07:36:26;18.63;;;11.90;;
32321;SDS011;61553;48.994;8.940;2022-10-20T07:38:54;19.92;;;11.40;;
32321;SDS011;61553;48.994;8.940;2022-10-20T07:41:22;18.50;;;11.30;;
32321;SDS011;61553;48.994;8.940;2022-10-20T07:43:48;16.05;;;10.15;;
32321;SDS011;61553;48.994;8.940;2022-10-20T07:46:14;15.57;;;10.30;;
32321;SDS011;61553;48.994;8.940;2022-10-20T07:48:40;18.17;;;10.88;;
32321;SDS011;61553;48.994;8.940;2022-10-20T07:56:30;11.85;;;8.63;;
32321;SDS011;61553;48.994;8.940;2022-10-20T07:59:04;13.43;;;9.32;;
32321;SDS011;61553;48.994;8.940;2022-10-20T08:01:30;14.45;;;9.02;;
32321;SDS011;61553;48.994;8.940;2022-10-20T08:03:56;15.07;;;9.02;;
32321;SDS011;61553;48.994;8.940;2022-10-20T08:06:22;12.93;;;8.55;;
32321;SDS011;61553;48.994;8.940;2022-10-20T08:08:48;13.95;;;8.95;;
32321;SDS011;61553;48.994;8.940;2022-10-20T08:11:14;11.23;;;7.70;;
32321;SDS011;61553;48.994;8.940;2022-10-20T08:13:40;12.05;;;7.40;;
32321;SDS011;61553;48.994;8.940;2022-10-20T08:16:07;13.50;;;8.00;;
32321;SDS011;61553;48.994;8.940;2022-10-20T08:18:34;10.80;;;7.53;;
32321;SDS011;61553;48.994;8.940;2022-10-20T08:21:11;10.73;;;7.38;;
32321;SDS011;61553;48.994;8.940;2022-10-20T08:23:39;11.00;;;7.47;;
32321;SDS011;61553;48.994;8.940;2022-10-20T08:26:05;9.07;;;6.78;;
32321;SDS011;61553;48.994;8.940;2022-10-20T08:28:31;10.75;;;7.80;;
32321;SDS011;61553;48.994;8.940;2022-10-20T08:30:58;9.73;;;6.63;;
32321;SDS011;61553;48.994;8.940;2022-10-20T08:33:26;10.57;;;7.32;;
32321;SDS011;61553;48.994;8.940;2022-10-20T08:35:52;12.80;;;6.90;;
32321;SDS011;61553;48.994;8.940;2022-10-20T08:38:17;11.32;;;6.57;;
32321;SDS011;61553;48.994;8.940;2022-10-20T08:40:43;13.27;;;7.03;;
32321;SDS011;61553;48.994;8.940;2022-10-20T08:43:11;12.05;;;6.97;;
32321;SDS011;61553;48.994;8.940;2022-10-20T08:45:42;12.13;;;7.18;;
32321;SDS011;61553;48.994;8.940;2022-10-20T08:48:08;9.35;;;6.43;;
32321;SDS011;61553;48.994;8.940;2022-10-20T08:50:44;10.20;;;6.65;;
32321;SDS011;61553;48.994;8.940;2022-10-20T08:53:12;11.52;;;6.75;;
32321;SDS011;61553;48.994;8.940;2022-10-20T08:55:38;9.10;;;6.03;;
32321;SDS011;61553;48.994;8.940;2022-10-20T08:58:11;8.02;;;5.55;;
32321;SDS011;61553;48.994;8.940;2022-10-20T09:00:38;7.72;;;5.78;;
32321;SDS011;61553;48.994;8.940;2022-10-20T09:03:17;9.38;;;6.55;;
32321;SDS011;61553;48.994;8.940;2022-10-20T09:05:52;11.18;;;6.10;;
32321;SDS011;61553;48.994;8.940;2022-10-20T09:08:22;7.82;;;5.65;;
32321;SDS011;61553;48.994;8.940;2022-10-20T09:10:52;8.45;;;6.07;;
32321;SDS011;61553;48.994;8.940;2022-10-20T09:13:22;7.50;;;5.50;;
32321;SDS011;61553;48.994;8.940;2022-10-20T09:15:50;7.38;;;5.40;;
32321;SDS011;61553;48.994;8.940;2022-10-20T09:18:19;8.82;;;5.43;;
32321;SDS011;61553;48.994;8.940;2022-10-20T09:20:52;9.27;;;5.35;;
32321;SDS011;61553;48.994;8.940;2022-10-20T09:23:38;7.78;;;5.38;;
32321;SDS011;61553;48.994;8.940;2022-10-20T09:26:13;6.80;;;4.68;;
32321;SDS011;61553;48.994;8.940;2022-10-20T09:29:06;9.00;;;5.10;;
32321;SDS011;61553;48.994;8.940;2022-10-20T09:31:41;7.18;;;5.32;;
32321;SDS011;61553;48.994;8.940;2022-10-20T09:37:09;9.50;;;5.35;;
32321;SDS011;61553;48.994;8.940;2022-10-20T09:42:17;9.70;;;5.27;;
32321;SDS011;61553;48.994;8.940;2022-10-20T09:45:48;6.55;;;5.00;;
32321;SDS011;61553;48.994;8.940;2022-10-20T09:47:46;7.50;;;4.60;;
32321;SDS011;61553;48.994;8.940;2022-10-20T09:50:26;7.28;;;5.50;;
32321;SDS011;61553;48.994;8.940;2022-10-20T09:52:58;8.02;;;5.82;;
32321;SDS011;61553;48.994;8.940;2022-10-20T09:55:29;9.70;;;5.72;;
32321;SDS011;61553;48.994;8.940;2022-10-20T09:58:01;8.95;;;6.13;;
32321;SDS011;61553;48.994;8.940;2022-10-20T10:00:32;9.38;;;6.18;;
32321;SDS011;61553;48.994;8.940;2022-10-20T10:03:14;10.15;;;6.00;;
32321;SDS011;61553;48.994;8.940;2022-10-20T10:05:49;7.47;;;5.32;;
32321;SDS011;61553;48.994;8.940;2022-10-20T10:08:24;8.57;;;5.95;;
32321;SDS011;61553;48.994;8.940;2022-10-20T10:10:59;8.32;;;5.55;;
32321;SDS011;61553;48.994;8.940;2022-10-20T10:13:38;8.50;;;5.18;;
32321;SDS011;61553;48.994;8.940;2022-10-20T10:16:07;9.25;;;5.45;;
32321;SDS011;61553;48.994;8.940;2022-10-20T10:18:35;10.05;;;6.40;;
32321;SDS011;61553;48.994;8.940;2022-10-20T10:21:03;11.98;;;6.82;;
32321;SDS011;61553;48.994;8.940;2022-10-20T10:23:34;11.60;;;6.03;;
32321;SDS011;61553;48.994;8.940;2022-10-20T10:26:33;7.78;;;6.00;;
32321;SDS011;61553;48.994;8.940;2022-10-20T10:29:15;8.55;;;5.95;;
32321;SDS011;61553;48.994;8.940;2022-10-20T10:31:55;14.15;;;6.85;;
32321;SDS011;61553;48.994;8.940;2022-10-20T10:34:38;12.10;;;6.80;;
32321;SDS011;61553;48.994;8.940;2022-10-20T10:37:37;10.45;;;7.45;;
32321;SDS011;61553;48.994;8.940;2022-10-20T10:40:15;12.07;;;6.72;;
32321;SDS011;61553;48.994;8.940;2022-10-20T10:46:07;10.43;;;6.53;;
32321;SDS011;61553;48.994;8.940;2022-10-20T10:51:26;13.32;;;6.70;;
32321;SDS011;61553;48.994;8.940;2022-10-20T10:56:50;9.98;;;7.25;;
32321;SDS011;61553;48.994;8.940;2022-10-20T10:59:19;11.20;;;7.60;;
32321;SDS011;61553;48.994;8.940;2022-10-20T11:04:28;10.30;;;7.05;;
32321;SDS011;61553;48.994;8.940;2022-10-20T11:10:52;10.18;;;6.95;;
32321;SDS011;61553;48.994;8.940;2022-10-20T11:13:55;10.52;;;6.20;;
32321;SDS011;61553;48.994;8.940;2022-10-20T11:16:45;7.65;;;5.93;;
32321;SDS011;61553;48.994;8.940;2022-10-20T11:19:32;14.30;;;6.85;;
32321;SDS011;61553;48.994;8.940;2022-10-20T11:22:23;9.13;;;6.50;;
32321;SDS011;61553;48.994;8.940;2022-10-20T11:28:02;12.73;;;8.13;;
32321;SDS011;61553;48.994;8.940;2022-10-20T11:30:47;10.30;;;7.32;;
32321;SDS011;61553;48.994;8.940;2022-10-20T11:33:15;10.07;;;6.63;;
32321;SDS011;61553;48.994;8.940;2022-10-20T11:36:00;12.40;;;7.10;;
32321;SDS011;61553;48.994;8.940;2022-10-20T11:38:46;12.55;;;7.65;;
32321;SDS011;61553;48.994;8.940;2022-10-20T11:41:19;10.80;;;6.75;;
32321;SDS011;61553;48.994;8.940;2022-10-20T11:44:06;10.82;;;6.75;;
32321;SDS011;61553;48.994;8.940;2022-10-20T11:46:50;8.52;;;6.00;;
32321;SDS011;61553;48.994;8.940;2022-10-20T11:49:36;13.43;;;8.10;;
32321;SDS011;61553;48.994;8.940;2022-10-20T12:11:11;11.40;;;5.30;;
32321;SDS011;61553;48.994;8.940;2022-10-20T12:13:50;12.93;;;6.10;;
32321;SDS011;61553;48.994;8.940;2022-10-20T12:19:19;7.22;;;5.07;;
32321;SDS011;61553;48.994;8.940;2022-10-20T12:21:55;9.35;;;5.20;;
32321;SDS011;61553;48.994;8.940;2022-10-20T12:34:46;9.70;;;5.28;;
32321;SDS011;61553;48.994;8.940;2022-10-20T12:37:17;9.40;;;4.95;;
32321;SDS011;61553;48.994;8.940;2022-10-20T12:39:48;9.20;;;5.03;;
32321;SDS011;61553;48.994;8.940;2022-10-20T12:42:19;10.40;;;5.10;;
32321;SDS011;61553;48.994;8.940;2022-10-20T12:44:47;9.80;;;4.72;;
32321;SDS011;61553;48.994;8.940;2022-10-20T12:47:17;9.95;;;4.93;;
32321;SDS011;61553;48.994;8.940;2022-10-20T12:49:51;11.63;;;5.57;;
32321;SDS011;61553;48.994;8.940;2022-10-20T12:52:31;8.40;;;5.00;;
32321;SDS011;61553;48.994;8.940;2022-10-20T12:55:02;7.63;;;4.78;;
32321;SDS011;61553;48.994;8.940;2022-10-20T12:57:45;9.02;;;4.85;;
32321;SDS011;61553;48.994;8.940;2022-10-20T13:02:50;11.23;;;5.22;;
32321;SDS011;61553;48.994;8.940;2022-10-20T13:10:55;7.73;;;5.10;;
32321;SDS011;61553;48.994;8.940;2022-10-20T13:18:05;13.27;;;5.93;;
32321;SDS011;61553;48.994;8.940;2022-10-20T13:20:56;10.25;;;5.68;;
32321;SDS011;61553;48.994;8.940;2022-10-20T13:23:52;11.43;;;5.45;;
32321;SDS011;61553;48.994;8.940;2022-10-20T13:26:28;11.23;;;6.32;;
32321;SDS011;61553;48.994;8.940;2022-10-20T13:28:59;8.48;;;5.47;;
32321;SDS011;61553;48.994;8.940;2022-10-20T13:31:34;9.65;;;4.97;;
32321;SDS011;61553;48.994;8.940;2022-10-20T13:39:45;6.72;;;4.75;;
32321;SDS011;61553;48.994;8.940;2022-10-20T13:47:44;10.77;;;6.22;;
32321;SDS011;61553;48.994;8.940;2022-10-20T13:50:22;7.60;;;4.72;;
32321;SDS011;61553;48.994;8.940;2022-10-20T13:53:15;8.07;;;4.20;;
32321;SDS011;61553;48.994;8.940;2022-10-20T13:55:54;7.30;;;4.65;;
32321;SDS011;61553;48.994;8.940;2022-10-20T14:01:26;7.72;;;4.95;;
32321;SDS011;61553;48.994;8.940;2022-10-20T14:03:53;7.20;;;4.70;;
32321;SDS011;61553;48.994;8.940;2022-10-20T14:06:35;10.60;;;5.03;;
32321;SDS011;61553;48.994;8.940;2022-10-20T14:09:35;9.82;;;4.22;;
32321;SDS011;61553;48.994;8.940;2022-10-20T14:11:55;7.80;;;3.88;;
32321;SDS011;61553;48.994;8.940;2022-10-20T14:14:41;9.60;;;4.43;;
32321;SDS011;61553;48.994;8.940;2022-10-20T14:17:15;6.60;;;3.72;;
32321;SDS011;61553;48.994;8.940;2022-10-20T14:19:44;8.02;;;4.00;;
32321;SDS011;61553;48.994;8.940;2022-10-20T14:22:22;7.07;;;3.75;;
32321;SDS011;61553;48.994;8.940;2022-10-20T14:24:50;8.00;;;4.25;;
32321;SDS011;61553;48.994;8.940;2022-10-20T14:27:28;8.68;;;4.13;;
32321;SDS011;61553;48.994;8.940;2022-10-20T14:29:55;7.25;;;4.00;;
32321;SDS011;61553;48.994;8.940;2022-10-20T14:32:26;8.68;;;3.97;;
32321;SDS011;61553;48.994;8.940;2022-10-20T14:37:26;9.27;;;4.50;;
32321;SDS011;61553;48.994;8.940;2022-10-20T14:39:57;80.70;;;30.55;;
32321;SDS011;61553;48.994;8.940;2022-10-20T14:42:26;49.33;;;22.98;;
32321;SDS011;61553;48.994;8.940;2022-10-20T14:44:55;71.57;;;43.63;;
32321;SDS011;61553;48.994;8.940;2022-10-20T14:47:23;9.80;;;5.72;;
32321;SDS011;61553;48.994;8.940;2022-10-20T14:50:01;140.57;;;84.38;;
32321;SDS011;61553;48.994;8.940;2022-10-20T14:52:27;34.47;;;18.77;;
32321;SDS011;61553;48.994;8.940;2022-10-20T14:54:56;14.73;;;7.40;;
32321;SDS011;61553;48.994;8.940;2022-10-20T14:57:29;38.47;;;30.25;;
32321;SDS011;61553;48.994;8.940;2022-10-20T15:02:49;11.20;;;5.13;;
32321;SDS011;61553;48.994;8.940;2022-10-20T15:07:55;11.30;;;6.10;;
32321;SDS011;61553;48.994;8.940;2022-10-20T15:10:25;10.70;;;6.10;;
32321;SDS011;61553;48.994;8.940;2022-10-20T15:12:51;14.20;;;8.15;;
32321;SDS011;61553;48.994;8.940;2022-10-20T15:15:22;18.75;;;9.57;;
32321;SDS011;61553;48.994;8.940;2022-10-20T15:22:57;13.57;;;4.50;;
32321;SDS011;61553;48.994;8.940;2022-10-20T15:25:30;17.10;;;9.50;;
32321;SDS011;61553;48.994;8.940;2022-10-20T15:28:52;6.38;;;4.20;;
32321;SDS011;61553;48.994;8.940;2022-10-20T15:30:53;8.55;;;4.43;;
32321;SDS011;61553;48.994;8.940;2022-10-20T15:33:19;8.10;;;4.70;;
32321;SDS011;61553;48.994;8.940;2022-10-20T15:35:45;8.18;;;4.90;;
32321;SDS011;61553;48.994;8.940;2022-10-20T15:38:12;7.97;;;4.63;;
32321;SDS011;61553;48.994;8.940;2022-10-20T15:40:38;10.88;;;5.50;;
32321;SDS011;61553;48.994;8.940;2022-10-20T15:43:04;9.98;;;6.05;;
32321;SDS011;61553;48.994;8.940;2022-10-20T15:45:34;10.82;;;6.53;;
32321;SDS011;61553;48.994;8.940;2022-10-20T15:48:03;9.32;;;6.03;;
32321;SDS011;61553;48.994;8.940;2022-10-20T15:50:29;7.43;;;5.50;;
32321;SDS011;61553;48.994;8.940;2022-10-20T15:52:55;10.80;;;5.63;;
32321;SDS011;61553;48.994;8.940;2022-10-20T15:57:57;16.00;;;9.60;;
32321;SDS011;61553;48.994;8.940;2022-10-20T16:00:24;14.77;;;9.48;;
32321;SDS011;61553;48.994;8.940;2022-10-20T16:02:51;22.05;;;13.88;;
32321;SDS011;61553;48.994;8.940;2022-10-20T16:05:18;18.65;;;13.13;;
32321;SDS011;61553;48.994;8.940;2022-10-20T16:07:45;27.50;;;12.65;;
32321;SDS011;61553;48.994;8.940;2022-10-20T16:10:11;18.08;;;13.48;;
32321;SDS011;61553;48.994;8.940;2022-10-20T16:12:38;15.10;;;9.65;;
32321;SDS011;61553;48.994;8.940;2022-10-20T16:15:05;42.40;;;25.05;;
32321;SDS011;61553;48.994;8.940;2022-10-20T16:17:32;17.85;;;11.68;;
32321;SDS011;61553;48.994;8.940;2022-10-20T16:19:58;18.88;;;12.05;;
32321;SDS011;61553;48.994;8.940;2022-10-20T16:22:24;21.80;;;11.30;;
32321;SDS011;61553;48.994;8.940;2022-10-20T16:24:50;16.42;;;11.77;;
32321;SDS011;61553;48.994;8.940;2022-10-20T16:27:16;17.52;;;11.10;;
32321;SDS011;61553;48.994;8.940;2022-10-20T16:29:42;10.73;;;6.25;;
32321;SDS011;61553;48.994;8.940;2022-10-20T16:32:08;9.65;;;5.78;;
32321;SDS011;61553;48.994;8.940;2022-10-20T16:34:34;8.75;;;5.25;;
32321;SDS011;61553;48.994;8.940;2022-10-20T16:36:59;13.18;;;7.30;;
32321;SDS011;61553;48.994;8.940;2022-10-20T16:39:25;11.55;;;6.22;;
32321;SDS011;61553;48.994;8.940;2022-10-20T16:41:51;15.35;;;7.15;;
32321;SDS011;61553;48.994;8.940;2022-10-20T16:44:16;9.52;;;5.68;;
32321;SDS011;61553;48.994;8.940;2022-10-20T16:46:42;8.82;;;6.20;;
32321;SDS011;61553;48.994;8.940;2022-10-20T16:49:08;19.75;;;8.60;;
32321;SDS011;61553;48.994;8.940;2022-10-20T16:51:34;16.30;;;9.07;;
32321;SDS011;61553;48.994;8.940;2022-10-20T16:54:00;15.43;;;8.18;;
32321;SDS011;61553;48.994;8.940;2022-10-20T16:56:25;12.85;;;8.60;;
32321;SDS011;61553;48.994;8.940;2022-10-20T16:58:51;13.57;;;7.25;;
32321;SDS011;61553;48.994;8.940;2022-10-20T17:01:18;18.83;;;8.27;;